createdAt,value
2022-09-09T00:02:23.466Z,22.39
2022-09-09T00:04:56.834Z,22.47
2022-09-09T00:07:45.758Z,22.57
2022-09-09T00:10:28.685Z,22.64
2022-09-09T00:13:26.451Z,22.73
2022-09-09T00:16:11.829Z,22.83
2022-09-09T00:19:29.240Z,22.90
2022-09-09T00:22:22.147Z,22.98
2022-09-09T00:24:56.989Z,23.05
2022-09-09T00:27:43.161Z,23.13
2022-09-09T00:30:25.930Z,23.22
2022-09-09T00:33:05.054Z,23.32
2022-09-09T00:35:40.069Z,23.40
2022-09-09T00:38:18.992Z,23.49
2022-09-09T00:40:58.176Z,23.59
2022-09-09T00:43:38.375Z,23.68
2022-09-09T00:46:43.999Z,23.74
2022-09-09T00:49:23.454Z,23.81
2022-09-09T00:52:06.833Z,23.87
2022-09-09T00:55:09.207Z,23.94
2022-09-09T00:57:40.629Z,24.00
2022-09-09T01:00:27.582Z,24.08
2022-09-09T01:03:24.425Z,24.13
2022-09-09T01:06:05.650Z,24.22
2022-09-09T01:09:03.343Z,24.29
2022-09-09T01:12:10.344Z,24.36
2022-09-09T01:14:40.327Z,24.42
2022-09-09T01:17:37.878Z,24.49
2022-09-09T01:20:32.346Z,24.58
2022-09-09T01:23:23.466Z,24.67
2022-09-09T01:26:13.447Z,24.75
2022-09-09T01:28:47.024Z,24.81
2022-09-09T01:31:29.833Z,24.86
2022-09-09T01:33:59.189Z,24.92
2022-09-09T01:36:53.387Z,25.00
2022-09-09T01:39:24.326Z,25.05
2022-09-09T01:42:02.093Z,25.12
2022-09-09T01:44:33.791Z,25.21
2022-09-09T01:47:05.598Z,25.27
2022-09-09T01:49:36.257Z,25.37
2022-09-09T01:52:13.841Z,25.44
2022-09-09T01:54:43.885Z,25.50
2022-09-09T01:57:23.450Z,25.57
2022-09-09T02:00:11.847Z,25.66
2022-09-09T02:02:52.310Z,25.72
2022-09-09T02:05:32.948Z,25.82
2022-09-09T02:08:24.506Z,25.89
2022-09-09T02:11:21.052Z,25.95
2022-09-09T02:14:30.750Z,26.02
2022-09-09T02:17:05.825Z,26.07
2022-09-09T02:20:01.038Z,26.16
2022-09-09T02:22:55.457Z,26.26
2022-09-09T02:25:45.373Z,26.35
2022-09-09T02:28:27.452Z,26.43
2022-09-09T02:30:58.353Z,26.49
2022-09-09T02:33:45.454Z,26.55
2022-09-09T02:36:25.315Z,26.60
2022-09-09T02:38:56.181Z,26.66
2022-09-09T02:44:29.762Z,26.78
2022-09-09T02:47:33.702Z,26.86
2022-09-09T02:50:30.362Z,26.92
2022-09-09T02:53:27.960Z,26.98
2022-09-09T02:56:02.371Z,27.05
2022-09-09T02:58:36.734Z,27.08
2022-09-09T03:01:14.455Z,27.11
2022-09-09T03:03:47.512Z,27.14
2022-09-09T03:06:19.963Z,27.17
2022-09-09T03:08:57.499Z,27.25
2022-09-09T03:11:32.650Z,27.28
2022-09-09T03:14:08.203Z,27.34
2022-09-09T03:16:40.623Z,27.38
2022-09-09T03:19:11.079Z,27.39
2022-09-09T03:21:41.474Z,27.43
2022-09-09T03:24:11.851Z,27.47
2022-09-09T03:26:42.817Z,27.49
2022-09-09T03:29:17.296Z,27.50
2022-09-09T03:31:48.144Z,27.55
2022-09-09T03:34:18.666Z,27.58
2022-09-09T03:36:54.214Z,27.64
2022-09-09T03:39:24.266Z,27.65
2022-09-09T03:41:54.582Z,27.71
2022-09-09T03:44:25.709Z,27.74
2022-09-09T03:46:57.984Z,27.77
2022-09-09T03:49:29.221Z,27.80
2022-09-09T03:52:02.882Z,27.84
2022-09-09T03:54:36.169Z,27.88
2022-09-09T03:57:07.474Z,27.94
2022-09-09T03:59:37.523Z,28.01
2022-09-09T04:02:08.506Z,27.98
2022-09-09T04:04:41.959Z,27.99
2022-09-09T04:07:14.506Z,27.99
2022-09-09T04:09:44.958Z,27.98
2022-09-09T04:12:17.690Z,27.98
2022-09-09T04:14:52.609Z,27.93
2022-09-09T04:17:23.049Z,27.88
2022-09-09T04:19:53.550Z,27.85
2022-09-09T04:22:25.211Z,27.84
2022-09-09T04:24:55.703Z,27.89
2022-09-09T04:27:33.638Z,27.94
2022-09-09T04:30:04.744Z,28.00
2022-09-09T04:32:41.140Z,28.06
2022-09-09T04:35:11.370Z,28.10
2022-09-09T04:37:44.796Z,28.14
2022-09-09T04:40:19.003Z,28.21
2022-09-09T04:42:53.531Z,28.28
2022-09-09T04:45:29.255Z,28.35
2022-09-09T04:48:03.523Z,28.41
2022-09-09T04:50:34.193Z,28.48
2022-09-09T04:53:07.019Z,28.52
2022-09-09T04:55:39.745Z,28.58
2022-09-09T04:58:10.366Z,28.61
2022-09-09T05:00:40.679Z,28.62
2022-09-09T05:03:11.830Z,28.60
2022-09-09T05:05:41.956Z,28.57
2022-09-09T05:08:12.497Z,28.57
2022-09-09T05:10:44.306Z,28.57
2022-09-09T05:13:15.514Z,28.61
2022-09-09T05:15:54.136Z,28.66
2022-09-09T05:18:26.077Z,28.73
2022-09-09T05:21:07.924Z,28.79
2022-09-09T05:23:38.073Z,28.84
2022-09-09T05:26:11.933Z,28.89
2022-09-09T05:28:45.465Z,28.92
2022-09-09T05:31:17.396Z,28.95
2022-09-09T05:33:57.750Z,28.99
2022-09-09T05:36:32.644Z,28.98
2022-09-09T05:39:16.471Z,29.00
2022-09-09T05:41:49.788Z,28.98
2022-09-09T05:44:21.279Z,29.00
2022-09-09T05:46:52.126Z,29.01
2022-09-09T05:49:22.956Z,29.02
2022-09-09T05:51:56.853Z,29.02
2022-09-09T05:54:27.910Z,28.99
2022-09-09T05:56:59.128Z,28.97
2022-09-09T05:59:37.347Z,28.92
2022-09-09T06:02:13.729Z,28.92
2022-09-09T06:04:49.394Z,28.88
2022-09-09T06:07:41.825Z,28.86
2022-09-09T06:10:19.074Z,28.82
2022-09-09T06:12:59.429Z,28.79
2022-09-09T06:15:35.845Z,28.75
2022-09-09T06:18:07.397Z,28.74
2022-09-09T06:20:38.086Z,28.71
2022-09-09T06:23:08.638Z,28.69
2022-09-09T06:25:39.892Z,28.72
2022-09-09T06:28:10.387Z,28.79
2022-09-09T06:30:40.927Z,28.85
2022-09-09T06:33:11.709Z,28.95
2022-09-09T06:35:41.967Z,29.02
2022-09-09T06:38:14.852Z,29.16
2022-09-09T06:40:46.570Z,29.26
2022-09-09T06:43:17.505Z,29.36
2022-09-09T06:46:10.928Z,29.48
2022-09-09T06:48:54.481Z,29.57
2022-09-09T06:51:32.541Z,29.62
2022-09-09T06:54:05.806Z,29.71
2022-09-09T06:56:42.430Z,29.79
2022-09-09T06:59:19.640Z,29.86
2022-09-09T07:01:55.620Z,29.90
2022-09-09T07:04:27.694Z,29.94
2022-09-09T07:06:58.822Z,29.97
2022-09-09T07:09:30.000Z,30.01
2022-09-09T07:12:02.444Z,30.05
2022-09-09T07:14:39.906Z,30.08
2022-09-09T07:17:15.159Z,30.14
2022-09-09T07:19:46.353Z,30.19
2022-09-09T07:22:19.072Z,30.24
2022-09-09T07:24:52.467Z,30.28
2022-09-09T07:27:24.216Z,30.31
2022-09-09T07:29:56.563Z,30.37
2022-09-09T07:32:32.912Z,30.40
2022-09-09T07:35:03.129Z,30.44
2022-09-09T07:37:37.797Z,30.48
2022-09-09T07:40:09.201Z,30.53
2022-09-09T07:42:41.007Z,30.57
2022-09-09T07:45:12.115Z,30.61
2022-09-09T07:47:45.238Z,30.64
2022-09-09T07:50:15.637Z,30.68
2022-09-09T07:52:46.648Z,30.70
2022-09-09T07:55:17.776Z,30.73
2022-09-09T07:57:49.023Z,30.73
2022-09-09T08:00:19.561Z,30.74
2022-09-09T08:02:56.462Z,30.72
2022-09-09T08:05:27.275Z,30.71
2022-09-09T08:07:59.042Z,30.70
2022-09-09T08:10:29.638Z,30.71
2022-09-09T08:13:17.247Z,30.71
2022-09-09T08:15:47.797Z,30.72
2022-09-09T08:18:18.145Z,30.73
2022-09-09T08:20:48.562Z,30.75
2022-09-09T08:23:18.888Z,30.74
2022-09-09T08:25:51.261Z,30.74
2022-09-09T08:28:22.569Z,30.77
2022-09-09T08:30:55.782Z,30.76
2022-09-09T08:33:27.326Z,30.74
2022-09-09T08:35:57.649Z,30.72
2022-09-09T08:38:27.849Z,30.70
2022-09-09T08:41:09.598Z,30.69
2022-09-09T08:43:39.821Z,30.67
2022-09-09T08:46:26.333Z,30.66
2022-09-09T08:49:25.096Z,30.63
2022-09-09T08:51:57.835Z,30.60
2022-09-09T08:54:51.788Z,30.58
2022-09-09T08:57:33.405Z,30.52
2022-09-09T09:00:03.565Z,30.47
2022-09-09T09:02:43.395Z,30.43
2022-09-09T09:05:29.989Z,30.37
2022-09-09T09:08:19.674Z,30.31
2022-09-09T09:10:56.428Z,30.25
2022-09-09T09:13:34.543Z,30.24
2022-09-09T09:16:35.728Z,30.21
2022-09-09T09:19:12.401Z,30.15
2022-09-09T09:21:51.960Z,30.09
2022-09-09T09:24:44.599Z,30.04
2022-09-09T09:27:30.935Z,29.96
2022-09-09T09:30:22.841Z,29.90
2022-09-09T09:33:39.193Z,29.86
2022-09-09T09:36:10.653Z,29.79
2022-09-09T09:41:47.810Z,29.69
2022-09-09T09:44:29.631Z,29.63
2022-09-09T09:47:15.893Z,29.58
2022-09-09T09:50:01.677Z,29.52
2022-09-09T09:52:39.363Z,29.47
2022-09-09T09:55:20.454Z,29.42
2022-09-09T09:57:50.337Z,29.37
2022-09-09T10:00:33.394Z,29.33
2022-09-09T10:03:38.344Z,29.25
2022-09-09T10:06:09.504Z,29.17
2022-09-09T10:08:54.947Z,29.10
2022-09-09T10:11:56.309Z,29.05
2022-09-09T10:15:01.910Z,28.98
2022-09-09T10:17:41.853Z,28.90
2022-09-09T10:20:27.586Z,28.84
2022-09-09T10:23:27.970Z,28.78
2022-09-09T10:26:16.649Z,28.68
2022-09-09T10:29:10.703Z,28.60
2022-09-09T10:31:55.956Z,28.50
2022-09-09T10:34:50.832Z,28.42
2022-09-09T10:37:27.642Z,28.33
2022-09-09T10:40:07.170Z,28.29
2022-09-09T10:42:39.489Z,28.23
2022-09-09T10:45:36.362Z,28.18
2022-09-09T10:48:45.151Z,28.12
2022-09-09T10:51:30.413Z,28.05
2022-09-09T10:54:35.077Z,27.97
2022-09-09T10:57:20.424Z,27.91
2022-09-09T10:59:55.998Z,27.85
2022-09-09T11:02:42.353Z,27.81
2022-09-09T11:05:30.908Z,27.77
2022-09-09T11:11:06.876Z,27.70
2022-09-09T11:14:22.611Z,27.65
2022-09-09T11:17:05.743Z,27.58
2022-09-09T11:19:45.920Z,27.54
2022-09-09T11:22:51.204Z,27.50
2022-09-09T11:25:45.831Z,27.45
2022-09-09T11:28:39.894Z,27.41
2022-09-09T11:34:10.798Z,27.30
2022-09-09T11:36:58.440Z,27.25
2022-09-09T11:39:51.356Z,27.25
2022-09-09T11:42:26.480Z,27.23
2022-09-09T11:45:05.690Z,27.20
2022-09-09T11:47:42.478Z,27.16
2022-09-09T11:50:36.006Z,27.12
2022-09-09T11:53:31.333Z,27.07
2022-09-09T11:56:12.394Z,27.00
2022-09-09T11:59:02.711Z,26.97
2022-09-09T12:01:54.031Z,26.93
2022-09-09T12:04:46.792Z,26.90
2022-09-09T12:07:45.008Z,26.84
2022-09-09T12:10:38.651Z,26.79
2022-09-09T12:13:23.888Z,26.75
2022-09-09T12:16:02.438Z,26.68
2022-09-09T12:18:53.002Z,26.62
2022-09-09T12:21:51.184Z,26.58
2022-09-09T12:24:42.669Z,26.56
2022-09-09T12:27:51.100Z,26.52
2022-09-09T12:33:16.030Z,26.44
2022-09-09T12:35:54.749Z,26.42
2022-09-09T12:38:41.655Z,26.40
2022-09-09T12:41:27.628Z,26.35
2022-09-09T12:44:22.028Z,26.33
2022-09-09T12:46:55.989Z,26.29
2022-09-09T12:49:40.074Z,26.24
2022-09-09T12:52:30.764Z,26.20
2022-09-09T12:55:10.583Z,26.16
2022-09-09T12:57:45.935Z,26.13
2022-09-09T13:00:29.942Z,26.10
2022-09-09T13:03:19.298Z,26.04
2022-09-09T13:05:49.838Z,26.00
2022-09-09T13:08:23.045Z,25.97
2022-09-09T13:11:12.015Z,25.95
2022-09-09T13:13:52.814Z,25.91
2022-09-09T13:16:31.192Z,25.89
2022-09-09T13:19:37.808Z,25.87
2022-09-09T13:22:46.136Z,25.80
2022-09-09T13:25:24.986Z,25.76
2022-09-09T13:28:02.860Z,25.73
2022-09-09T13:30:42.977Z,25.70
2022-09-09T13:33:36.753Z,25.66
2022-09-09T13:36:16.120Z,25.66
2022-09-09T13:39:09.584Z,25.62
2022-09-09T13:41:51.232Z,25.57
2022-09-09T13:44:35.441Z,25.54
2022-09-09T13:47:19.715Z,25.50
2022-09-09T13:49:56.708Z,25.44
2022-09-09T13:52:39.314Z,25.38
2022-09-09T13:55:15.211Z,25.31
2022-09-09T13:57:56.086Z,25.25
2022-09-09T14:00:33.961Z,25.22
2022-09-09T14:03:04.979Z,25.18
2022-09-09T14:05:41.267Z,25.12
2022-09-09T14:08:25.679Z,25.11
2022-09-09T14:11:02.782Z,25.08
2022-09-09T14:13:49.191Z,25.08
2022-09-09T14:16:24.227Z,25.07
2022-09-09T14:18:55.392Z,25.03
2022-09-09T14:21:39.514Z,25.00
2022-09-09T14:24:10.665Z,25.00
2022-09-09T14:27:01.274Z,24.99
2022-09-09T14:29:38.186Z,24.99
2022-09-09T14:32:20.157Z,24.99
2022-09-09T14:34:56.802Z,24.98
2022-09-09T14:37:29.503Z,24.96
2022-09-09T14:40:00.916Z,24.94
2022-09-09T14:42:33.024Z,24.90
2022-09-09T14:45:04.268Z,24.85
2022-09-09T14:47:38.024Z,24.82
2022-09-09T14:50:13.773Z,24.78
2022-09-09T14:52:48.698Z,24.73
2022-09-09T14:55:20.345Z,24.69
2022-09-09T14:57:54.063Z,24.66
2022-09-09T15:00:29.270Z,24.65
2022-09-09T15:03:05.588Z,24.63
2022-09-09T15:05:39.920Z,24.59
2022-09-09T15:08:13.470Z,24.58
2022-09-09T15:10:51.781Z,24.58
2022-09-09T15:13:28.098Z,24.53
2022-09-09T15:16:00.630Z,24.49
2022-09-09T15:18:38.413Z,24.46
2022-09-09T15:21:09.655Z,24.43
2022-09-09T15:23:40.610Z,24.38
2022-09-09T15:26:11.848Z,24.35
2022-09-09T15:28:43.614Z,24.32
2022-09-09T15:31:33.132Z,24.34
2022-09-09T15:34:04.994Z,24.34
2022-09-09T15:36:54.246Z,24.34
2022-09-09T15:39:25.560Z,24.35
2022-09-09T15:42:00.179Z,24.35
2022-09-09T15:44:48.047Z,24.33
2022-09-09T15:47:18.564Z,24.35
2022-09-09T15:50:01.166Z,24.30
2022-09-09T15:52:36.702Z,24.28
2022-09-09T15:55:21.156Z,24.26
2022-09-09T15:58:07.241Z,24.24
2022-09-09T16:00:40.690Z,24.23
2022-09-09T16:03:16.205Z,24.22
2022-09-09T16:05:51.544Z,24.16
2022-09-09T16:08:22.506Z,24.12
2022-09-09T16:10:57.630Z,24.05
2022-09-09T16:13:31.543Z,24.00
2022-09-09T16:16:07.774Z,23.96
2022-09-09T16:18:48.497Z,23.95
2022-09-09T16:21:20.910Z,23.89
2022-09-09T16:24:02.080Z,23.89
2022-09-09T16:26:35.667Z,23.86
2022-09-09T16:29:11.487Z,23.82
2022-09-09T16:32:01.227Z,23.78
2022-09-09T16:34:41.470Z,23.74
2022-09-09T16:37:17.069Z,23.71
2022-09-09T16:39:54.697Z,23.67
2022-09-09T16:42:31.293Z,23.66
2022-09-09T16:45:05.297Z,23.63
2022-09-09T16:47:38.859Z,23.65
2022-09-09T16:50:09.610Z,23.63
2022-09-09T16:52:40.403Z,23.58
2022-09-09T16:55:15.352Z,23.54
2022-09-09T16:57:46.130Z,23.50
2022-09-09T17:00:21.062Z,23.49
2022-09-09T17:03:04.187Z,23.46
2022-09-09T17:05:35.859Z,23.43
2022-09-09T17:08:08.116Z,23.40
2022-09-09T17:10:56.175Z,23.37
2022-09-09T17:13:27.825Z,23.34
2022-09-09T17:16:03.018Z,23.29
2022-09-09T17:18:45.514Z,23.23
2022-09-09T17:21:21.513Z,23.20
2022-09-09T17:23:52.692Z,23.20
2022-09-09T17:26:24.889Z,23.18
2022-09-09T17:28:59.283Z,23.19
2022-09-09T17:31:31.719Z,23.15
2022-09-09T17:34:02.851Z,23.12
2022-09-09T17:36:35.980Z,23.11
2022-09-09T17:39:07.869Z,23.11
2022-09-09T17:41:42.398Z,23.11
2022-09-09T17:44:13.453Z,23.11
2022-09-09T17:46:49.416Z,23.13
2022-09-09T17:49:20.991Z,23.14
2022-09-09T17:51:51.315Z,23.11
2022-09-09T17:54:23.093Z,23.10
2022-09-09T17:56:53.527Z,23.07
2022-09-09T17:59:27.059Z,23.05
2022-09-09T18:01:57.653Z,23.02
2022-09-09T18:04:31.149Z,22.98
2022-09-09T18:07:03.358Z,22.93
2022-09-09T18:09:34.267Z,22.90
2022-09-09T18:12:05.125Z,22.85
2022-09-09T18:14:39.860Z,22.83
2022-09-09T18:17:13.702Z,22.81
2022-09-09T18:19:51.720Z,22.80
2022-09-09T18:22:25.582Z,22.78
2022-09-09T18:25:05.611Z,22.79
2022-09-09T18:27:38.109Z,22.77
2022-09-09T18:30:11.788Z,22.73
2022-09-09T18:32:43.047Z,22.70
2022-09-09T18:35:13.513Z,22.67
2022-09-09T18:37:43.916Z,22.66
2022-09-09T18:40:14.843Z,22.63
2022-09-09T18:42:45.544Z,22.62
2022-09-09T18:45:16.595Z,22.61
2022-09-09T18:47:49.185Z,22.57
2022-09-09T18:50:20.741Z,22.54
2022-09-09T18:52:51.490Z,22.52
2022-09-09T18:55:22.232Z,22.50
2022-09-09T18:57:53.003Z,22.46
2022-09-09T19:00:23.462Z,22.38
2022-09-09T19:02:57.540Z,22.34
2022-09-09T19:05:31.183Z,22.30
2022-09-09T19:08:06.779Z,22.28
2022-09-09T19:10:43.015Z,22.27
2022-09-09T19:13:13.931Z,22.24
2022-09-09T19:15:47.028Z,22.23
2022-09-09T19:18:20.349Z,22.20
2022-09-09T19:20:50.936Z,22.18
2022-09-09T19:23:24.482Z,22.17
2022-09-09T19:25:55.181Z,22.16
2022-09-09T19:28:32.180Z,22.14
2022-09-09T19:31:17.495Z,22.10
2022-09-09T19:33:51.867Z,22.07
2022-09-09T19:36:22.512Z,22.05
2022-09-09T19:41:40.277Z,21.97
2022-09-09T19:44:18.223Z,21.98
2022-09-09T19:46:48.940Z,21.96
2022-09-09T19:49:22.283Z,21.94
2022-09-09T19:51:53.384Z,21.94
2022-09-09T19:54:26.797Z,21.93
2022-09-09T19:57:00.280Z,21.90
2022-09-09T19:59:31.227Z,21.90
2022-09-09T20:02:01.931Z,21.85
2022-09-09T20:04:32.317Z,21.82
2022-09-09T20:07:02.799Z,21.80
2022-09-09T20:09:35.660Z,21.76
2022-09-09T20:12:09.039Z,21.74
2022-09-09T20:14:41.880Z,21.69
2022-09-09T20:17:12.374Z,21.68
2022-09-09T20:19:43.630Z,21.66
2022-09-09T20:22:14.345Z,21.63
2022-09-09T20:24:45.673Z,21.62
2022-09-09T20:27:16.154Z,21.63
2022-09-09T20:29:48.733Z,21.61
2022-09-09T20:32:19.648Z,21.62
2022-09-09T20:34:50.325Z,21.63
2022-09-09T20:37:22.559Z,21.64
2022-09-09T20:39:54.266Z,21.64
2022-09-09T20:42:26.940Z,21.65
2022-09-09T20:45:02.993Z,21.64
2022-09-09T20:47:34.127Z,21.63
2022-09-09T20:50:05.139Z,21.62
2022-09-09T20:52:38.274Z,21.61
2022-09-09T20:55:12.645Z,21.63
2022-09-09T20:57:42.572Z,21.62
2022-09-09T21:00:13.619Z,21.60
2022-09-09T21:02:47.157Z,21.60
2022-09-09T21:05:20.775Z,21.56
2022-09-09T21:07:55.148Z,21.53
2022-09-09T21:10:26.098Z,21.48
2022-09-09T21:12:59.513Z,21.42
2022-09-09T21:15:29.900Z,21.41
2022-09-09T21:18:01.809Z,21.34
2022-09-09T21:20:33.389Z,21.33
2022-09-09T21:23:03.990Z,21.31
2022-09-09T21:25:37.894Z,21.29
2022-09-09T21:28:09.253Z,21.27
2022-09-09T21:30:44.859Z,21.24
2022-09-09T21:33:15.470Z,21.23
2022-09-09T21:35:49.284Z,21.20
2022-09-09T21:38:23.512Z,21.18
2022-09-09T21:40:55.536Z,21.17
2022-09-09T21:43:26.225Z,21.18
2022-09-09T21:45:58.690Z,21.20
2022-09-09T21:48:28.800Z,21.22
2022-09-09T21:51:04.488Z,21.22
2022-09-09T21:53:35.658Z,21.22
2022-09-09T21:56:10.110Z,21.23
2022-09-09T21:58:45.909Z,21.22
2022-09-09T22:01:28.510Z,21.24
2022-09-09T22:04:01.484Z,21.25
2022-09-09T22:06:32.428Z,21.26
2022-09-09T22:09:03.473Z,21.26
2022-09-09T22:11:34.307Z,21.25
2022-09-09T22:14:05.035Z,21.29
2022-09-09T22:16:36.405Z,21.30
2022-09-09T22:19:11.446Z,21.31
2022-09-09T22:21:42.628Z,21.31
2022-09-09T22:24:14.267Z,21.32
2022-09-09T22:26:44.700Z,21.31
2022-09-09T22:29:17.168Z,21.29
2022-09-09T22:31:48.194Z,21.29
2022-09-09T22:34:22.470Z,21.29
2022-09-09T22:36:53.034Z,21.29
2022-09-09T22:39:26.831Z,21.29
2022-09-09T22:42:03.281Z,21.31
2022-09-09T22:44:36.187Z,21.32
2022-09-09T22:47:07.226Z,21.34
2022-09-09T22:49:39.555Z,21.39
2022-09-09T22:52:14.984Z,21.41
2022-09-09T22:55:00.725Z,21.43
2022-09-09T22:57:32.809Z,21.47
2022-09-09T23:00:04.312Z,21.51
2022-09-09T23:02:40.664Z,21.57
2022-09-09T23:05:15.685Z,21.61
2022-09-09T23:07:46.820Z,21.63
2022-09-09T23:10:18.166Z,21.69
2022-09-09T23:12:53.496Z,21.71
2022-09-09T23:15:24.823Z,21.79
2022-09-09T23:17:59.732Z,21.82
2022-09-09T23:20:31.205Z,21.88
2022-09-09T23:23:02.681Z,21.94
2022-09-09T23:25:33.826Z,22.01
2022-09-09T23:28:05.353Z,22.05
2022-09-09T23:30:36.518Z,22.11
2022-09-09T23:33:10.275Z,22.18
2022-09-09T23:35:41.251Z,22.21
2022-09-09T23:38:17.942Z,22.19
2022-09-09T23:40:49.117Z,22.22
2022-09-09T23:43:19.740Z,22.26
2022-09-09T23:45:52.028Z,22.30
2022-09-09T23:48:28.469Z,22.31
2022-09-09T23:51:07.180Z,22.38
2022-09-09T23:53:39.184Z,22.41
2022-09-09T23:56:14.032Z,22.45
2022-09-09T23:58:54.050Z,22.53
